createdAt,value
2023-10-23T00:02:19.651Z,63.56
2023-10-23T00:04:48.415Z,63.53
2023-10-23T00:07:17.316Z,63.49
2023-10-23T00:09:45.610Z,63.90
2023-10-23T00:12:13.955Z,63.91
2023-10-23T00:14:42.244Z,63.74
2023-10-23T00:17:10.662Z,63.94
2023-10-23T00:19:38.783Z,63.85
2023-10-23T00:22:07.009Z,63.77
2023-10-23T00:24:35.380Z,63.73
2023-10-23T00:27:03.742Z,63.58
2023-10-23T00:29:31.961Z,63.79
2023-10-23T00:32:00.181Z,63.48
2023-10-23T00:34:28.406Z,63.38
2023-10-23T00:36:56.565Z,62.89
2023-10-23T00:39:25.457Z,62.66
2023-10-23T00:41:53.665Z,62.39
2023-10-23T00:44:21.889Z,62.41
2023-10-23T00:46:50.429Z,62.49
2023-10-23T00:49:19.028Z,62.42
2023-10-23T00:51:47.992Z,62.21
2023-10-23T00:54:16.889Z,62.10
2023-10-23T00:56:45.830Z,62.29
2023-10-23T00:59:14.918Z,62.65
2023-10-23T01:01:45.167Z,62.82
2023-10-23T01:04:13.574Z,63.12
2023-10-23T01:06:41.930Z,63.53
2023-10-23T01:09:10.828Z,64.47
2023-10-23T01:11:39.061Z,64.72
2023-10-23T01:14:07.287Z,64.80
2023-10-23T01:16:35.544Z,64.60
2023-10-23T01:19:04.420Z,64.45
2023-10-23T01:21:32.697Z,64.52
2023-10-23T01:24:01.465Z,64.60
2023-10-23T01:26:29.678Z,64.50
2023-10-23T01:28:58.001Z,64.55
2023-10-23T01:31:26.572Z,64.57
2023-10-23T01:33:56.191Z,64.95
2023-10-23T01:36:24.487Z,65.24
2023-10-23T01:38:52.690Z,65.60
2023-10-23T01:41:21.010Z,66.85
2023-10-23T01:43:49.223Z,67.71
2023-10-23T01:46:17.484Z,67.24
2023-10-23T01:48:45.905Z,67.05
2023-10-23T01:51:14.035Z,67.03
2023-10-23T01:53:42.406Z,66.86
2023-10-23T01:56:10.771Z,66.68
2023-10-23T01:58:38.943Z,66.70
2023-10-23T02:01:07.365Z,66.64
2023-10-23T02:03:35.815Z,66.66
2023-10-23T02:06:04.008Z,66.51
2023-10-23T02:08:32.229Z,66.35
2023-10-23T02:11:01.454Z,66.24
2023-10-23T02:13:29.979Z,66.38
2023-10-23T02:15:58.116Z,66.04
2023-10-23T02:18:26.428Z,66.26
2023-10-23T02:20:54.731Z,66.49
2023-10-23T02:23:23.049Z,66.62
2023-10-23T02:25:51.272Z,66.59
2023-10-23T02:28:19.623Z,66.30
2023-10-23T02:30:49.213Z,66.47
2023-10-23T02:33:17.397Z,66.95
2023-10-23T02:35:46.662Z,67.89
2023-10-23T02:38:14.984Z,68.74
2023-10-23T02:40:52.181Z,68.28
2023-10-23T02:43:21.461Z,67.27
2023-10-23T02:45:49.797Z,67.46
2023-10-23T02:48:20.845Z,67.47
2023-10-23T02:50:59.577Z,67.11
2023-10-23T02:53:27.896Z,67.73
2023-10-23T02:55:56.367Z,67.73
2023-10-23T02:58:24.463Z,67.39
2023-10-23T03:00:52.720Z,67.28
2023-10-23T03:03:21.167Z,67.05
2023-10-23T03:05:49.703Z,66.64
2023-10-23T03:08:18.122Z,67.08
2023-10-23T03:10:46.243Z,67.04
2023-10-23T03:13:14.362Z,67.44
2023-10-23T03:15:42.713Z,67.79
2023-10-23T03:18:11.952Z,67.15
2023-10-23T03:20:41.627Z,67.35
2023-10-23T03:23:09.849Z,67.66
2023-10-23T03:25:38.070Z,67.50
2023-10-23T03:28:06.289Z,67.55
2023-10-23T03:30:34.839Z,67.75
2023-10-23T03:33:03.170Z,67.55
2023-10-23T03:35:31.460Z,67.41
2023-10-23T03:37:59.671Z,67.23
2023-10-23T03:40:27.892Z,67.10
2023-10-23T03:42:56.156Z,67.32
2023-10-23T03:45:24.453Z,67.83
2023-10-23T03:47:52.756Z,68.11
2023-10-23T03:50:21.168Z,68.11
2023-10-23T03:52:49.401Z,68.19
2023-10-23T03:55:17.708Z,68.63
2023-10-23T03:57:48.935Z,68.99
2023-10-23T04:00:17.664Z,68.73
2023-10-23T04:02:45.940Z,69.34
2023-10-23T04:05:14.984Z,69.14
2023-10-23T04:07:43.237Z,69.06
2023-10-23T04:10:15.253Z,68.69
2023-10-23T04:12:43.709Z,68.32
2023-10-23T04:15:12.108Z,68.11
2023-10-23T04:17:40.329Z,68.07
2023-10-23T04:20:09.091Z,68.01
2023-10-23T04:22:37.268Z,67.92
2023-10-23T04:25:05.948Z,67.79
2023-10-23T04:27:34.269Z,67.81
2023-10-23T04:30:06.424Z,67.97
2023-10-23T04:32:34.774Z,67.57
2023-10-23T04:35:03.496Z,68.15
2023-10-23T04:37:31.720Z,68.45
2023-10-23T04:40:00.439Z,68.81
2023-10-23T04:42:28.804Z,68.73
2023-10-23T04:44:57.190Z,68.40
2023-10-23T04:47:25.476Z,67.97
2023-10-23T04:49:53.733Z,67.60
2023-10-23T04:52:22.357Z,67.12
2023-10-23T04:54:53.396Z,66.68
2023-10-23T04:57:21.790Z,66.49
2023-10-23T04:59:50.133Z,66.47
2023-10-23T05:02:18.442Z,66.40
2023-10-23T05:04:46.798Z,66.17
2023-10-23T05:07:16.392Z,66.38
2023-10-23T05:09:44.648Z,66.35
2023-10-23T05:12:13.043Z,66.34
2023-10-23T05:14:41.261Z,66.38
2023-10-23T05:17:09.480Z,66.28
2023-10-23T05:19:37.745Z,66.43
2023-10-23T05:22:06.015Z,66.57
2023-10-23T05:24:34.156Z,66.93
2023-10-23T05:27:02.457Z,67.18
2023-10-23T05:29:30.677Z,67.46
2023-10-23T05:32:00.595Z,67.18
2023-10-23T05:34:28.817Z,66.67
2023-10-23T05:36:57.047Z,66.16
2023-10-23T05:39:25.303Z,65.73
2023-10-23T05:41:53.470Z,65.39
2023-10-23T05:44:22.018Z,65.12
2023-10-23T05:46:50.127Z,64.74
2023-10-23T05:49:18.334Z,64.39
2023-10-23T05:51:46.821Z,64.19
2023-10-23T05:54:18.295Z,64.03
2023-10-23T05:56:46.707Z,63.98
2023-10-23T05:59:14.937Z,63.75
2023-10-23T06:01:43.186Z,63.91
2023-10-23T06:04:11.599Z,63.53
2023-10-23T06:06:40.194Z,62.74
2023-10-23T06:09:09.512Z,62.46
2023-10-23T06:11:37.946Z,62.00
2023-10-23T06:14:06.549Z,62.23
2023-10-23T06:16:34.709Z,61.58
2023-10-23T06:19:03.904Z,61.09
2023-10-23T06:21:32.942Z,60.77
2023-10-23T06:24:02.345Z,60.59
2023-10-23T06:26:30.613Z,60.30
2023-10-23T06:28:59.181Z,60.23
2023-10-23T06:31:27.454Z,59.89
2023-10-23T06:33:55.973Z,59.93
2023-10-23T06:36:24.237Z,60.27
2023-10-23T06:38:52.759Z,59.80
2023-10-23T06:41:20.880Z,58.68
2023-10-23T06:43:49.202Z,58.56
2023-10-23T06:46:17.355Z,58.22
2023-10-23T06:48:46.025Z,58.02
2023-10-23T06:51:17.493Z,57.80
2023-10-23T06:53:45.748Z,57.55
2023-10-23T06:56:14.417Z,57.04
2023-10-23T06:58:43.942Z,56.50
2023-10-23T07:01:12.561Z,56.48
2023-10-23T07:03:41.245Z,56.17
2023-10-23T07:06:10.185Z,55.53
2023-10-23T07:08:40.633Z,55.83
2023-10-23T07:11:17.807Z,55.56
2023-10-23T07:13:46.130Z,55.25
2023-10-23T07:16:14.312Z,55.03
2023-10-23T07:18:42.719Z,55.13
2023-10-23T07:21:11.502Z,55.26
2023-10-23T07:23:40.432Z,54.94
2023-10-23T07:26:17.962Z,55.05
2023-10-23T07:28:46.780Z,54.66
2023-10-23T07:31:15.755Z,54.38
2023-10-23T07:33:44.752Z,53.18
2023-10-23T07:36:14.680Z,53.47
2023-10-23T07:38:44.064Z,53.04
2023-10-23T07:41:13.817Z,52.08
2023-10-23T07:43:43.984Z,51.06
2023-10-23T07:46:17.418Z,51.07
2023-10-23T07:48:47.395Z,50.29
2023-10-23T07:51:16.209Z,49.84
2023-10-23T07:53:44.843Z,50.26
2023-10-23T07:56:14.496Z,49.82
2023-10-23T07:58:43.095Z,49.80
2023-10-23T08:01:15.304Z,49.92
2023-10-23T08:03:43.828Z,49.37
2023-10-23T08:06:12.742Z,49.08
2023-10-23T08:08:42.245Z,49.13
2023-10-23T08:11:12.671Z,48.37
2023-10-23T08:13:41.652Z,48.34
2023-10-23T08:16:10.023Z,47.44
2023-10-23T08:18:41.333Z,46.80
2023-10-23T08:21:15.641Z,46.90
2023-10-23T08:23:46.252Z,46.95
2023-10-23T08:26:14.612Z,46.25
2023-10-23T08:31:29.472Z,46.49
2023-10-23T08:34:02.644Z,45.70
2023-10-23T08:36:31.141Z,45.74
2023-10-23T08:38:59.457Z,44.60
2023-10-23T08:41:27.911Z,43.92
2023-10-23T08:43:57.443Z,43.91
2023-10-23T08:46:27.862Z,43.02
2023-10-23T08:48:56.363Z,42.55
2023-10-23T08:51:25.389Z,41.64
2023-10-23T08:54:10.934Z,41.65
2023-10-23T08:56:42.751Z,41.40
2023-10-23T08:59:14.468Z,41.27
2023-10-23T09:01:43.271Z,41.07
2023-10-23T09:04:13.140Z,40.99
2023-10-23T09:06:44.076Z,40.92
2023-10-23T09:09:13.052Z,41.15
2023-10-23T09:11:50.669Z,41.29
2023-10-23T09:14:29.738Z,41.30
2023-10-23T09:16:59.421Z,40.99
2023-10-23T09:19:38.501Z,40.88
2023-10-23T09:22:08.791Z,40.74
2023-10-23T09:24:38.786Z,40.60
2023-10-23T09:27:07.209Z,39.84
2023-10-23T09:29:37.154Z,39.87
2023-10-23T09:32:07.001Z,39.71
2023-10-23T09:34:43.293Z,39.46
2023-10-23T09:37:11.734Z,39.44
2023-10-23T09:39:41.732Z,39.41
2023-10-23T09:42:10.462Z,39.37
2023-10-23T09:44:40.333Z,39.70
2023-10-23T09:47:12.719Z,39.73
2023-10-23T09:49:42.107Z,40.10
2023-10-23T09:52:11.994Z,40.25
2023-10-23T09:54:44.751Z,40.24
2023-10-23T09:57:17.018Z,39.06
2023-10-23T09:59:54.979Z,39.14
2023-10-23T10:02:30.856Z,38.65
2023-10-23T10:05:06.592Z,38.47
2023-10-23T10:07:59.101Z,37.92
2023-10-23T10:10:27.770Z,36.98
2023-10-23T10:12:57.766Z,37.10
2023-10-23T10:15:27.064Z,37.08
2023-10-23T10:17:55.354Z,36.57
2023-10-23T10:20:25.088Z,35.53
2023-10-23T10:23:05.278Z,35.44
2023-10-23T10:25:35.617Z,34.98
2023-10-23T10:28:05.850Z,34.81
2023-10-23T10:30:52.814Z,34.87
2023-10-23T10:34:18.386Z,34.31
2023-10-23T10:36:13.654Z,34.48
2023-10-23T10:38:42.566Z,34.06
2023-10-23T10:41:19.274Z,34.14
2023-10-23T10:43:54.805Z,34.62
2023-10-23T10:46:27.368Z,34.21
2023-10-23T10:48:57.377Z,34.52
2023-10-23T10:51:27.473Z,34.52
2023-10-23T10:54:00.070Z,34.40
2023-10-23T10:56:28.813Z,34.21
2023-10-23T10:59:01.203Z,34.03
2023-10-23T11:01:29.837Z,33.89
2023-10-23T11:03:58.577Z,33.86
2023-10-23T11:06:27.113Z,33.89
2023-10-23T11:08:56.398Z,33.55
2023-10-23T11:11:27.565Z,32.88
2023-10-23T11:13:56.143Z,31.98
2023-10-23T11:16:24.780Z,31.96
2023-10-23T11:18:53.159Z,31.69
2023-10-23T11:21:24.716Z,31.92
2023-10-23T11:23:57.550Z,31.81
2023-10-23T11:26:27.597Z,31.37
2023-10-23T11:28:55.946Z,31.16
2023-10-23T11:31:24.276Z,31.16
2023-10-23T11:33:53.718Z,31.01
2023-10-23T11:36:23.014Z,32.82
2023-10-23T11:38:52.038Z,34.11
2023-10-23T11:41:22.566Z,33.27
2023-10-23T11:43:59.523Z,31.79
2023-10-23T11:46:28.448Z,30.99
2023-10-23T11:48:56.760Z,30.52
2023-10-23T11:51:25.683Z,29.87
2023-10-23T11:53:54.834Z,29.39
2023-10-23T11:56:23.026Z,28.75
2023-10-23T11:58:51.550Z,27.82
2023-10-23T12:01:19.869Z,27.64
2023-10-23T12:03:48.244Z,26.98
2023-10-23T12:06:16.611Z,26.52
2023-10-23T12:08:44.830Z,25.30
2023-10-23T12:11:13.353Z,25.14
2023-10-23T12:13:41.776Z,24.94
2023-10-23T12:16:11.438Z,24.84
2023-10-23T12:18:39.823Z,24.84
2023-10-23T12:21:08.153Z,24.86
2023-10-23T12:23:36.359Z,24.83
2023-10-23T12:26:04.773Z,24.94
2023-10-23T12:28:33.463Z,25.38
2023-10-23T12:31:01.711Z,25.71
2023-10-23T12:33:50.757Z,26.29
2023-10-23T12:36:19.539Z,26.41
2023-10-23T12:38:47.876Z,26.56
2023-10-23T12:41:16.221Z,26.70
2023-10-23T12:43:44.677Z,26.87
2023-10-23T12:46:13.131Z,26.87
2023-10-23T12:48:45.145Z,27.13
2023-10-23T12:51:13.588Z,27.41
2023-10-23T12:53:41.799Z,27.45
2023-10-23T12:56:10.122Z,27.73
2023-10-23T12:58:38.444Z,27.81
2023-10-23T13:01:06.712Z,27.92
2023-10-23T13:03:35.009Z,28.54
2023-10-23T13:06:05.008Z,29.15
2023-10-23T13:08:33.235Z,29.70
2023-10-23T13:11:02.052Z,30.54
2023-10-23T13:13:30.601Z,31.04
2023-10-23T13:15:58.963Z,31.57
2023-10-23T13:18:27.418Z,31.93
2023-10-23T13:21:33.114Z,32.48
2023-10-23T13:23:44.831Z,32.90
2023-10-23T13:26:14.455Z,33.27
2023-10-23T13:28:43.177Z,33.57
2023-10-23T13:31:12.528Z,33.57
2023-10-23T13:33:40.922Z,33.75
2023-10-23T13:36:09.995Z,34.07
2023-10-23T13:38:38.972Z,33.94
2023-10-23T13:41:07.488Z,34.07
2023-10-23T13:43:35.816Z,34.32
2023-10-23T13:46:05.712Z,34.18
2023-10-23T13:48:34.562Z,34.50
2023-10-23T13:51:03.041Z,34.90
2023-10-23T13:53:32.820Z,35.22
2023-10-23T13:56:01.033Z,35.67
2023-10-23T13:58:29.267Z,35.85
2023-10-23T14:00:58.775Z,36.48
2023-10-23T14:03:29.203Z,36.94
2023-10-23T14:05:59.227Z,37.08
2023-10-23T14:09:42.418Z,37.05
2023-10-23T14:12:00.374Z,37.37
2023-10-23T14:14:04.342Z,37.93
2023-10-23T14:16:32.620Z,38.10
2023-10-23T14:19:00.994Z,38.11
2023-10-23T14:21:29.710Z,38.00
2023-10-23T14:23:57.916Z,38.42
2023-10-23T14:26:26.945Z,39.02
2023-10-23T14:28:55.767Z,39.55
2023-10-23T14:31:24.049Z,39.74
2023-10-23T14:33:52.437Z,40.15
2023-10-23T14:36:20.645Z,40.65
2023-10-23T14:38:48.749Z,41.45
2023-10-23T14:41:17.067Z,42.20
2023-10-23T14:43:45.288Z,42.43
2023-10-23T14:46:15.396Z,43.20
2023-10-23T14:48:44.039Z,43.77
2023-10-23T14:51:12.260Z,44.47
2023-10-23T14:53:40.786Z,44.75
2023-10-23T14:56:10.717Z,45.32
2023-10-23T14:58:39.180Z,45.70
2023-10-23T15:01:09.450Z,46.00
2023-10-23T15:03:42.858Z,46.55
2023-10-23T15:06:13.081Z,47.08
2023-10-23T15:08:43.803Z,47.64
2023-10-23T15:11:16.053Z,47.54
2023-10-23T15:13:44.321Z,47.25
2023-10-23T15:16:12.572Z,47.56
2023-10-23T15:18:40.846Z,48.13
2023-10-23T15:21:09.532Z,48.80
2023-10-23T15:23:37.787Z,49.30
2023-10-23T15:26:06.228Z,50.22
2023-10-23T15:28:36.795Z,50.72
2023-10-23T15:31:07.196Z,51.57
2023-10-23T15:33:37.221Z,52.69
2023-10-23T15:36:07.279Z,53.35
2023-10-23T15:38:36.836Z,53.91
2023-10-23T15:41:10.466Z,53.16
2023-10-23T15:43:40.622Z,53.62
2023-10-23T15:46:16.989Z,53.34
2023-10-23T15:48:46.016Z,53.92
2023-10-23T15:51:15.875Z,54.67
2023-10-23T15:53:44.142Z,54.94
2023-10-23T15:56:12.376Z,54.83
2023-10-23T15:58:40.680Z,55.02
2023-10-23T16:01:10.613Z,55.07
2023-10-23T16:03:38.966Z,56.25
2023-10-23T16:06:11.188Z,57.10
2023-10-23T16:08:39.948Z,56.88
2023-10-23T16:11:09.212Z,56.71
2023-10-23T16:13:38.557Z,56.34
2023-10-23T16:16:15.313Z,56.30
2023-10-23T16:18:47.393Z,57.25
2023-10-23T16:21:16.830Z,58.46
2023-10-23T16:23:45.377Z,58.70
2023-10-23T16:26:13.697Z,59.27
2023-10-23T16:28:42.006Z,58.94
2023-10-23T16:31:14.207Z,58.56
2023-10-23T16:33:43.594Z,58.98
2023-10-23T16:36:12.688Z,58.99
2023-10-23T16:38:40.922Z,59.66
2023-10-23T16:41:09.238Z,59.77
2023-10-23T16:43:41.771Z,59.41
2023-10-23T16:46:12.904Z,60.03
2023-10-23T16:48:42.810Z,60.21
2023-10-23T16:51:11.451Z,60.07
2023-10-23T16:53:39.972Z,59.62
2023-10-23T16:56:08.489Z,60.48
2023-10-23T16:58:36.794Z,61.39
2023-10-23T17:01:09.715Z,60.51
2023-10-23T17:03:41.719Z,60.50
2023-10-23T17:06:10.780Z,59.96
2023-10-23T17:08:39.120Z,59.72
2023-10-23T17:11:08.990Z,59.20
2023-10-23T17:13:38.223Z,59.85
2023-10-23T17:16:07.689Z,60.42
2023-10-23T17:18:36.020Z,61.31
2023-10-23T17:21:04.645Z,61.00
2023-10-23T17:23:35.152Z,60.22
2023-10-23T17:26:03.497Z,61.23
2023-10-23T17:28:32.153Z,61.40
2023-10-23T17:31:00.843Z,61.53
2023-10-23T17:33:32.033Z,61.44
2023-10-23T17:36:00.999Z,61.24
2023-10-23T17:38:29.307Z,61.71
2023-10-23T17:40:57.825Z,61.46
2023-10-23T17:43:26.259Z,61.51
2023-10-23T17:45:55.367Z,61.48
2023-10-23T17:48:23.693Z,61.56
2023-10-23T17:50:53.211Z,61.75
2023-10-23T17:53:21.331Z,61.80
2023-10-23T17:55:49.568Z,61.87
2023-10-23T17:58:17.915Z,62.22
2023-10-23T18:00:46.242Z,62.00
2023-10-23T18:03:15.407Z,61.67
2023-10-23T18:05:43.845Z,63.06
2023-10-23T18:08:12.056Z,62.54
2023-10-23T18:10:40.323Z,63.04
2023-10-23T18:13:09.743Z,63.72
2023-10-23T18:15:38.020Z,63.85
2023-10-23T18:18:06.268Z,62.36
2023-10-23T18:20:34.455Z,62.09
2023-10-23T18:23:02.678Z,63.08
2023-10-23T18:25:31.734Z,62.44
2023-10-23T18:27:59.967Z,61.98
2023-10-23T18:30:28.341Z,61.74
2023-10-23T18:32:56.513Z,61.34
2023-10-23T18:35:24.752Z,61.07
2023-10-23T18:37:54.090Z,61.03
2023-10-23T18:40:22.410Z,61.01
2023-10-23T18:42:55.743Z,60.93
2023-10-23T18:45:24.185Z,60.85
2023-10-23T18:47:52.680Z,60.69
2023-10-23T18:50:21.328Z,60.63
2023-10-23T18:52:49.748Z,60.60
2023-10-23T18:55:17.875Z,60.59
2023-10-23T18:57:46.085Z,61.32
2023-10-23T19:00:16.750Z,60.71
2023-10-23T19:02:45.588Z,60.95
2023-10-23T19:05:13.963Z,61.66
2023-10-23T19:07:42.222Z,61.24
2023-10-23T19:10:11.049Z,61.16
2023-10-23T19:12:39.425Z,61.02
2023-10-23T19:15:08.044Z,60.76
2023-10-23T19:17:40.989Z,61.17
2023-10-23T19:20:10.828Z,60.67
2023-10-23T19:22:39.803Z,59.96
2023-10-23T19:25:08.991Z,59.57
2023-10-23T19:27:37.474Z,59.23
2023-10-23T19:30:06.813Z,58.93
2023-10-23T19:32:35.636Z,59.01
2023-10-23T19:35:04.325Z,58.71
2023-10-23T19:37:33.328Z,58.63
2023-10-23T19:40:03.014Z,58.93
2023-10-23T19:42:38.550Z,58.49
2023-10-23T19:45:09.063Z,58.40
2023-10-23T19:47:37.913Z,58.62
2023-10-23T19:50:07.135Z,58.55
2023-10-23T19:52:37.625Z,58.85
2023-10-23T19:55:44.760Z,58.81
2023-10-23T19:57:55.575Z,59.04
2023-10-23T20:00:24.108Z,59.26
2023-10-23T20:02:52.472Z,59.63
2023-10-23T20:05:20.917Z,59.54
2023-10-23T20:07:49.275Z,59.27
2023-10-23T20:10:17.990Z,59.63
2023-10-23T20:12:46.216Z,59.83
2023-10-23T20:15:14.648Z,60.38
2023-10-23T20:17:42.903Z,60.20
2023-10-23T20:20:11.388Z,60.36
2023-10-23T20:22:39.653Z,60.96
2023-10-23T20:25:08.050Z,62.03
2023-10-23T20:27:36.449Z,62.60
2023-10-23T20:30:06.536Z,62.85
2023-10-23T20:32:35.711Z,62.91
2023-10-23T20:35:05.679Z,63.04
2023-10-23T20:37:35.218Z,63.11
2023-10-23T20:40:05.147Z,63.67
2023-10-23T20:42:37.572Z,63.64
2023-10-23T20:45:07.283Z,63.58
2023-10-23T20:47:36.007Z,63.41
2023-10-23T20:50:04.765Z,63.94
2023-10-23T20:52:33.791Z,63.87
2023-10-23T20:55:02.435Z,63.78
2023-10-23T20:57:31.718Z,64.30
2023-10-23T21:00:00.162Z,63.94
2023-10-23T21:02:29.354Z,64.45
2023-10-23T21:04:57.680Z,64.49
2023-10-23T21:07:26.174Z,65.13
2023-10-23T21:25:22.496Z,65.68
2023-10-23T21:27:51.923Z,65.52
2023-10-23T21:30:20.559Z,65.57
2023-10-23T21:32:48.796Z,65.02
2023-10-23T21:35:16.983Z,65.56
2023-10-23T21:37:45.567Z,65.38
2023-10-23T21:40:14.032Z,65.67
2023-10-23T21:42:42.451Z,66.05
2023-10-23T21:45:10.669Z,65.61
2023-10-23T21:47:38.989Z,65.44
2023-10-23T21:50:08.010Z,66.13
2023-10-23T21:52:36.661Z,65.54
2023-10-23T21:55:13.994Z,65.43
2023-10-23T21:57:47.803Z,65.78
2023-10-23T22:00:29.117Z,65.52
2023-10-23T22:02:58.774Z,65.15
2023-10-23T22:05:27.824Z,64.99
2023-10-23T22:07:57.136Z,64.83
2023-10-23T22:10:26.835Z,64.73
2023-10-23T22:12:57.344Z,64.70
2023-10-23T22:15:25.634Z,64.93
2023-10-23T22:17:54.426Z,65.38
2023-10-23T22:20:22.968Z,65.36
2023-10-23T22:22:50.984Z,66.16
2023-10-23T22:25:19.635Z,66.40
2023-10-23T22:27:48.131Z,66.82
2023-10-23T22:30:16.676Z,66.77
2023-10-23T22:32:47.809Z,66.86
2023-10-23T22:35:20.328Z,67.40
2023-10-23T22:38:06.967Z,67.38
2023-10-23T22:40:37.472Z,67.74
2023-10-23T22:43:05.814Z,67.38
2023-10-23T22:45:36.898Z,67.47
2023-10-23T22:48:13.879Z,67.77
2023-10-23T22:50:42.526Z,67.41
2023-10-23T22:53:11.189Z,67.57
2023-10-23T22:55:40.601Z,68.00
2023-10-23T22:58:13.078Z,67.72
2023-10-23T23:00:41.875Z,67.31
2023-10-23T23:03:10.746Z,67.22
2023-10-23T23:05:40.861Z,67.13
2023-10-23T23:08:12.408Z,67.02
2023-10-23T23:10:41.023Z,66.85
2023-10-23T23:13:09.960Z,66.55
2023-10-23T23:15:40.295Z,65.87
2023-10-23T23:18:09.446Z,65.40
2023-10-23T23:20:42.594Z,64.92
2023-10-23T23:23:10.921Z,64.35
2023-10-23T23:25:39.090Z,63.99
2023-10-23T23:28:07.421Z,63.99
2023-10-23T23:30:35.577Z,63.95
2023-10-23T23:33:03.939Z,64.27
2023-10-23T23:35:32.425Z,64.32
2023-10-23T23:38:00.524Z,64.26
2023-10-23T23:40:28.756Z,63.81
2023-10-23T23:42:56.864Z,64.00
2023-10-23T23:45:25.185Z,65.38
2023-10-23T23:47:53.250Z,66.02
2023-10-23T23:50:21.522Z,66.53
2023-10-23T23:52:49.842Z,66.43
2023-10-23T23:55:17.929Z,66.61
2023-10-23T23:57:46.881Z,67.90
